createdAt,value
2023-05-19T00:01:43.983Z,50.67
2023-05-19T00:06:42.610Z,50.69
2023-05-19T00:09:11.012Z,50.44
2023-05-19T00:11:40.051Z,50.47
2023-05-19T00:14:09.545Z,50.79
2023-05-19T00:16:37.925Z,50.82
2023-05-19T00:19:06.709Z,50.60
2023-05-19T00:21:34.681Z,50.91
2023-05-19T00:24:03.989Z,50.95
2023-05-19T00:26:31.886Z,50.83
2023-05-19T00:28:59.762Z,50.97
2023-05-19T00:31:27.768Z,50.91
2023-05-19T00:33:55.755Z,50.77
2023-05-19T00:36:23.771Z,51.16
2023-05-19T00:38:51.960Z,50.98
2023-05-19T00:41:21.262Z,50.93
2023-05-19T00:43:49.201Z,50.67
2023-05-19T00:46:17.251Z,50.90
2023-05-19T00:48:45.707Z,51.11
2023-05-19T00:51:16.724Z,51.03
2023-05-19T00:53:48.563Z,51.21
2023-05-19T00:56:17.045Z,51.04
2023-05-19T00:58:46.519Z,50.81
2023-05-19T01:01:14.695Z,50.89
2023-05-19T01:03:43.177Z,51.07
2023-05-19T01:06:12.343Z,50.82
2023-05-19T01:08:40.436Z,50.94
2023-05-19T01:11:08.623Z,50.88
2023-05-19T01:13:36.790Z,50.93
2023-05-19T01:16:08.963Z,51.38
2023-05-19T01:18:57.949Z,50.91
2023-05-19T01:22:02.124Z,50.97
2023-05-19T01:25:07.033Z,51.39
2023-05-19T01:27:47.154Z,51.16
2023-05-19T01:30:30.444Z,51.34
2023-05-19T01:33:00.587Z,51.20
2023-05-19T01:35:28.660Z,51.27
2023-05-19T01:37:57.242Z,51.39
2023-05-19T01:40:25.354Z,51.10
2023-05-19T01:42:56.648Z,50.95
2023-05-19T01:45:27.297Z,51.40
2023-05-19T01:47:57.151Z,51.05
2023-05-19T01:50:25.161Z,51.31
2023-05-19T01:52:53.145Z,51.00
2023-05-19T01:55:21.281Z,51.20
2023-05-19T01:57:54.544Z,51.23
2023-05-19T02:00:27.042Z,51.25
2023-05-19T02:02:59.139Z,51.41
2023-05-19T02:05:32.954Z,51.44
2023-05-19T02:08:07.633Z,51.45
2023-05-19T02:10:35.494Z,51.57
2023-05-19T02:13:05.583Z,51.52
2023-05-19T02:15:38.693Z,51.38
2023-05-19T02:18:07.003Z,51.49
2023-05-19T02:20:35.128Z,51.39
2023-05-19T02:23:03.249Z,51.33
2023-05-19T02:25:31.706Z,51.48
2023-05-19T02:27:59.754Z,51.42
2023-05-19T02:30:27.913Z,51.54
2023-05-19T02:32:57.223Z,51.55
2023-05-19T02:35:25.245Z,51.67
2023-05-19T02:37:54.110Z,51.70
2023-05-19T02:40:22.334Z,51.68
2023-05-19T02:42:50.357Z,51.99
2023-05-19T02:45:18.323Z,51.89
2023-05-19T02:47:46.355Z,51.73
2023-05-19T02:50:15.745Z,51.85
2023-05-19T02:52:43.635Z,52.07
2023-05-19T02:55:17.203Z,51.72
2023-05-19T02:57:45.219Z,52.05
2023-05-19T03:00:14.040Z,51.78
2023-05-19T03:02:44.089Z,51.97
2023-05-19T03:05:12.298Z,51.74
2023-05-19T03:07:41.581Z,51.75
2023-05-19T03:10:10.505Z,52.03
2023-05-19T03:12:38.436Z,52.09
2023-05-19T03:15:07.266Z,52.09
2023-05-19T03:17:36.450Z,52.12
2023-05-19T03:20:05.830Z,52.38
2023-05-19T03:22:34.135Z,52.39
2023-05-19T03:25:03.498Z,52.28
2023-05-19T03:27:31.477Z,52.09
2023-05-19T03:29:59.403Z,52.18
2023-05-19T03:32:27.497Z,52.08
2023-05-19T03:34:55.494Z,52.19
2023-05-19T03:37:23.373Z,52.14
2023-05-19T03:39:51.301Z,52.01
2023-05-19T03:42:20.614Z,52.02
2023-05-19T03:44:48.570Z,52.00
2023-05-19T03:47:16.446Z,52.04
2023-05-19T03:49:44.396Z,52.05
2023-05-19T03:52:12.694Z,52.02
2023-05-19T03:54:42.664Z,51.92
2023-05-19T03:57:11.047Z,51.82
2023-05-19T03:59:41.422Z,52.09
2023-05-19T04:02:09.506Z,51.96
2023-05-19T04:04:38.516Z,51.99
2023-05-19T04:07:07.210Z,52.00
2023-05-19T04:09:35.576Z,51.96
2023-05-19T04:12:03.803Z,52.18
2023-05-19T04:14:31.716Z,51.95
2023-05-19T04:17:01.039Z,52.06
2023-05-19T04:19:29.137Z,52.08
2023-05-19T04:21:57.158Z,52.35
2023-05-19T04:24:25.076Z,52.37
2023-05-19T04:26:53.328Z,52.19
2023-05-19T04:29:23.469Z,52.20
2023-05-19T04:31:52.777Z,52.12
2023-05-19T04:34:22.096Z,52.13
2023-05-19T04:36:53.143Z,52.39
2023-05-19T04:39:21.651Z,52.28
2023-05-19T04:41:49.582Z,52.12
2023-05-19T04:44:18.547Z,52.29
2023-05-19T04:46:46.518Z,52.25
2023-05-19T04:49:14.569Z,52.34
2023-05-19T04:51:46.179Z,52.35
2023-05-19T04:54:14.110Z,52.18
2023-05-19T04:56:42.144Z,52.30
2023-05-19T04:59:10.149Z,52.34
2023-05-19T05:01:41.496Z,52.16
2023-05-19T05:04:09.484Z,52.13
2023-05-19T05:06:40.585Z,52.22
2023-05-19T05:09:10.562Z,52.18
2023-05-19T05:11:38.991Z,52.33
2023-05-19T05:14:07.348Z,52.43
2023-05-19T05:16:36.145Z,52.43
2023-05-19T05:19:04.553Z,52.53
2023-05-19T05:21:32.971Z,52.73
2023-05-19T05:24:01.354Z,52.67
2023-05-19T05:26:32.004Z,52.80
2023-05-19T05:28:59.901Z,52.56
2023-05-19T05:31:27.919Z,52.74
2023-05-19T05:33:55.982Z,52.81
2023-05-19T05:36:23.928Z,52.96
2023-05-19T05:38:51.910Z,53.06
2023-05-19T05:41:19.927Z,52.78
2023-05-19T05:43:49.213Z,52.96
2023-05-19T05:46:17.978Z,52.77
2023-05-19T05:48:46.503Z,52.66
2023-05-19T05:51:14.873Z,52.75
2023-05-19T05:53:44.374Z,52.44
2023-05-19T05:56:13.790Z,52.60
2023-05-19T05:58:41.738Z,52.80
2023-05-19T06:01:11.655Z,52.90
2023-05-19T06:03:42.516Z,52.89
2023-05-19T06:06:10.475Z,52.53
2023-05-19T06:08:38.432Z,52.90
2023-05-19T06:11:08.825Z,52.60
2023-05-19T06:13:36.881Z,52.94
2023-05-19T06:16:05.199Z,52.90
2023-05-19T06:18:34.576Z,52.91
2023-05-19T06:21:03.356Z,52.64
2023-05-19T06:23:31.670Z,52.46
2023-05-19T06:25:59.703Z,52.84
2023-05-19T06:28:27.623Z,52.38
2023-05-19T06:30:55.553Z,52.80
2023-05-19T06:33:23.486Z,52.82
2023-05-19T06:35:52.835Z,52.55
2023-05-19T06:38:20.798Z,52.31
2023-05-19T06:40:49.311Z,52.54
2023-05-19T06:43:17.867Z,52.55
2023-05-19T06:45:46.204Z,52.41
2023-05-19T06:48:14.232Z,52.89
2023-05-19T06:50:42.180Z,53.15
2023-05-19T06:53:11.479Z,53.02
2023-05-19T06:55:54.382Z,53.13
2023-05-19T06:58:26.814Z,53.02
2023-05-19T07:00:54.831Z,53.42
2023-05-19T07:03:22.880Z,53.43
2023-05-19T07:05:51.102Z,53.28
2023-05-19T07:08:20.916Z,53.47
2023-05-19T07:10:48.841Z,53.12
2023-05-19T07:13:16.898Z,53.35
2023-05-19T07:15:44.847Z,53.34
2023-05-19T07:18:12.940Z,53.41
2023-05-19T07:20:40.962Z,53.27
2023-05-19T07:23:08.955Z,53.52
2023-05-19T07:25:38.264Z,53.67
2023-05-19T07:28:06.399Z,53.44
2023-05-19T07:30:34.468Z,53.32
2023-05-19T07:33:02.704Z,53.21
2023-05-19T07:35:30.828Z,53.10
2023-05-19T07:37:58.759Z,53.34
2023-05-19T07:40:26.704Z,53.47
2023-05-19T07:42:56.027Z,53.33
2023-05-19T07:45:23.943Z,53.52
2023-05-19T07:47:52.671Z,53.63
2023-05-19T07:50:20.665Z,53.47
2023-05-19T07:52:48.643Z,53.32
2023-05-19T07:55:18.001Z,53.09
2023-05-19T07:57:46.004Z,53.08
2023-05-19T08:00:16.630Z,53.28
2023-05-19T08:02:44.716Z,53.17
2023-05-19T08:05:12.718Z,52.97
2023-05-19T08:07:40.675Z,52.57
2023-05-19T08:10:09.387Z,52.64
2023-05-19T08:12:37.278Z,52.31
2023-05-19T08:15:05.930Z,52.32
2023-05-19T08:17:35.269Z,51.86
2023-05-19T08:20:05.094Z,51.74
2023-05-19T08:22:33.098Z,51.94
2023-05-19T08:25:01.453Z,51.29
2023-05-19T08:27:30.048Z,51.21
2023-05-19T08:29:57.949Z,50.99
2023-05-19T08:32:25.898Z,50.94
2023-05-19T08:34:55.230Z,50.62
2023-05-19T08:37:23.106Z,50.76
2023-05-19T08:39:51.011Z,50.19
2023-05-19T08:42:18.952Z,49.78
2023-05-19T08:44:46.861Z,49.62
2023-05-19T08:47:14.788Z,49.44
2023-05-19T08:49:45.342Z,49.15
2023-05-19T08:52:21.058Z,49.19
2023-05-19T08:54:52.649Z,48.40
2023-05-19T08:57:20.587Z,47.37
2023-05-19T08:59:49.028Z,47.23
2023-05-19T09:02:16.998Z,46.95
2023-05-19T09:04:46.180Z,46.35
2023-05-19T09:07:14.704Z,46.33
2023-05-19T09:09:44.239Z,46.09
2023-05-19T09:12:12.399Z,46.00
2023-05-19T09:14:40.432Z,46.17
2023-05-19T09:17:08.479Z,45.91
2023-05-19T09:19:36.496Z,45.78
2023-05-19T09:22:04.820Z,45.32
2023-05-19T09:24:32.897Z,45.11
2023-05-19T09:27:02.284Z,44.89
2023-05-19T09:29:30.215Z,44.85
2023-05-19T09:32:01.024Z,44.75
2023-05-19T09:34:29.117Z,44.44
2023-05-19T09:36:58.071Z,43.94
2023-05-19T09:39:26.356Z,43.76
2023-05-19T09:41:54.789Z,43.48
2023-05-19T09:44:29.383Z,43.22
2023-05-19T09:46:59.873Z,43.15
2023-05-19T09:49:29.596Z,43.10
2023-05-19T09:51:57.830Z,42.83
2023-05-19T09:54:27.494Z,42.71
2023-05-19T09:56:59.836Z,42.61
2023-05-19T09:59:32.307Z,42.00
2023-05-19T10:02:02.287Z,42.10
2023-05-19T10:04:31.007Z,41.87
2023-05-19T10:07:00.458Z,41.46
2023-05-19T10:09:29.789Z,41.61
2023-05-19T10:11:58.682Z,41.39
2023-05-19T10:14:27.691Z,41.10
2023-05-19T10:16:58.156Z,40.73
2023-05-19T10:19:26.776Z,39.60
2023-05-19T10:21:54.923Z,39.90
2023-05-19T10:24:23.061Z,39.27
2023-05-19T10:26:52.901Z,39.43
2023-05-19T10:29:22.327Z,39.35
2023-05-19T10:31:50.260Z,39.19
2023-05-19T10:34:30.239Z,38.87
2023-05-19T10:37:03.207Z,38.41
2023-05-19T10:39:35.500Z,38.65
2023-05-19T10:42:06.264Z,38.50
2023-05-19T10:44:41.902Z,37.87
2023-05-19T10:47:12.139Z,37.58
2023-05-19T10:49:41.728Z,37.28
2023-05-19T10:52:21.544Z,37.08
2023-05-19T10:54:49.663Z,36.92
2023-05-19T10:57:17.876Z,36.46
2023-05-19T10:59:45.862Z,36.64
2023-05-19T11:02:40.323Z,36.66
2023-05-19T11:05:14.621Z,36.56
2023-05-19T11:07:44.290Z,36.48
2023-05-19T11:10:12.802Z,36.51
2023-05-19T11:12:44.275Z,36.46
2023-05-19T11:15:14.596Z,36.96
2023-05-19T11:17:43.469Z,37.24
2023-05-19T11:20:22.806Z,37.90
2023-05-19T11:23:06.486Z,38.28
2023-05-19T11:25:44.647Z,38.88
2023-05-19T11:28:13.604Z,39.21
2023-05-19T11:30:42.711Z,39.25
2023-05-19T11:33:11.184Z,39.24
2023-05-19T11:35:41.131Z,39.41
2023-05-19T11:38:09.170Z,39.41
2023-05-19T11:40:37.237Z,39.43
2023-05-19T11:43:05.147Z,39.52
2023-05-19T11:45:34.308Z,39.41
2023-05-19T11:48:03.455Z,39.36
2023-05-19T11:50:32.111Z,39.57
2023-05-19T11:53:02.410Z,39.67
2023-05-19T11:55:31.265Z,39.69
2023-05-19T11:58:04.038Z,39.68
2023-05-19T12:00:37.757Z,39.73
2023-05-19T12:03:06.010Z,39.58
2023-05-19T12:05:37.946Z,39.60
2023-05-19T12:08:09.407Z,39.84
2023-05-19T12:10:37.471Z,39.84
2023-05-19T12:13:06.430Z,39.97
2023-05-19T12:15:34.625Z,40.13
2023-05-19T12:18:03.093Z,40.41
2023-05-19T12:20:32.671Z,40.51
2023-05-19T12:23:33.841Z,40.55
2023-05-19T12:26:01.948Z,40.94
2023-05-19T12:28:31.230Z,41.40
2023-05-19T12:30:59.203Z,41.58
2023-05-19T12:33:27.148Z,41.44
2023-05-19T12:35:55.358Z,41.85
2023-05-19T12:38:23.893Z,42.04
2023-05-19T12:40:53.299Z,42.43
2023-05-19T12:43:22.071Z,42.45
2023-05-19T12:45:50.123Z,42.73
2023-05-19T12:48:18.226Z,42.67
2023-05-19T12:50:46.346Z,42.76
2023-05-19T12:53:14.626Z,41.93
2023-05-19T12:55:43.788Z,41.60
2023-05-19T12:58:13.234Z,41.36
2023-05-19T13:00:45.733Z,41.69
2023-05-19T13:03:16.564Z,41.81
2023-05-19T13:05:46.516Z,41.43
2023-05-19T13:08:16.202Z,41.41
2023-05-19T13:10:46.317Z,41.19
2023-05-19T13:13:15.672Z,41.24
2023-05-19T13:15:44.504Z,41.48
2023-05-19T13:18:13.303Z,41.11
2023-05-19T13:20:42.364Z,41.16
2023-05-19T13:23:11.858Z,41.37
2023-05-19T13:25:39.853Z,41.06
2023-05-19T13:28:08.022Z,40.81
2023-05-19T13:30:38.649Z,41.11
2023-05-19T13:33:06.797Z,41.30
2023-05-19T13:35:37.575Z,41.06
2023-05-19T13:38:06.192Z,41.05
2023-05-19T13:40:34.949Z,40.56
2023-05-19T13:43:03.274Z,40.47
2023-05-19T13:45:31.210Z,40.30
2023-05-19T13:48:00.576Z,40.36
2023-05-19T13:50:28.622Z,40.86
2023-05-19T13:52:56.577Z,41.11
2023-05-19T13:55:26.318Z,40.81
2023-05-19T13:57:54.411Z,40.40
2023-05-19T14:00:22.564Z,40.55
2023-05-19T14:02:50.590Z,40.21
2023-05-19T14:05:20.668Z,39.77
2023-05-19T14:07:48.714Z,39.92
2023-05-19T14:10:16.684Z,39.71
2023-05-19T14:13:07.918Z,39.62
2023-05-19T14:15:34.631Z,39.67
2023-05-19T14:18:03.636Z,39.52
2023-05-19T14:20:34.252Z,39.96
2023-05-19T14:23:03.105Z,40.22
2023-05-19T14:25:31.122Z,39.74
2023-05-19T14:27:59.098Z,39.76
2023-05-19T14:30:27.216Z,39.79
2023-05-19T14:32:55.256Z,39.60
2023-05-19T14:35:23.809Z,38.96
2023-05-19T14:37:53.265Z,38.88
2023-05-19T14:40:21.188Z,38.57
2023-05-19T14:42:49.136Z,39.14
2023-05-19T14:45:17.360Z,38.71
2023-05-19T14:47:46.209Z,38.96
2023-05-19T14:50:15.494Z,38.41
2023-05-19T14:52:43.503Z,38.60
2023-05-19T14:55:12.740Z,38.14
2023-05-19T14:57:40.846Z,37.51
2023-05-19T15:00:10.374Z,36.75
2023-05-19T15:02:38.413Z,36.11
2023-05-19T15:05:06.940Z,35.31
2023-05-19T15:07:34.977Z,35.45
2023-05-19T15:10:03.113Z,35.78
2023-05-19T15:12:32.468Z,34.94
2023-05-19T15:15:00.638Z,35.42
2023-05-19T15:17:28.636Z,34.52
2023-05-19T15:19:56.671Z,35.07
2023-05-19T15:22:24.664Z,34.42
2023-05-19T15:24:52.590Z,34.52
2023-05-19T15:27:20.858Z,34.95
2023-05-19T15:29:50.162Z,34.99
2023-05-19T15:32:18.372Z,34.93
2023-05-19T15:34:46.325Z,35.10
2023-05-19T15:37:14.291Z,35.11
2023-05-19T15:39:42.236Z,35.84
2023-05-19T15:42:10.250Z,35.86
2023-05-19T15:44:38.581Z,36.28
2023-05-19T15:47:07.991Z,36.89
2023-05-19T15:49:35.967Z,37.13
2023-05-19T15:52:04.530Z,37.14
2023-05-19T15:54:32.498Z,37.53
2023-05-19T15:57:00.409Z,37.11
2023-05-19T15:59:28.331Z,36.66
2023-05-19T16:01:56.258Z,35.67
2023-05-19T16:04:25.634Z,34.76
2023-05-19T16:06:53.537Z,35.00
2023-05-19T16:09:21.579Z,34.84
2023-05-19T16:11:49.708Z,34.81
2023-05-19T16:14:17.679Z,35.38
2023-05-19T16:16:45.935Z,35.33
2023-05-19T16:19:14.118Z,34.60
2023-05-19T16:21:43.705Z,34.54
2023-05-19T16:24:11.721Z,33.73
2023-05-19T16:26:39.687Z,33.45
2023-05-19T16:29:07.593Z,32.65
2023-05-19T16:31:35.687Z,32.42
2023-05-19T16:34:03.723Z,31.97
2023-05-19T16:36:31.870Z,32.54
2023-05-19T16:39:01.287Z,32.10
2023-05-19T16:41:29.234Z,32.59
2023-05-19T16:43:57.181Z,32.53
2023-05-19T16:46:25.375Z,32.58
2023-05-19T16:48:53.643Z,32.89
2023-05-19T16:51:21.901Z,33.26
2023-05-19T16:53:49.941Z,33.57
2023-05-19T16:56:19.260Z,34.25
2023-05-19T16:58:47.391Z,34.17
2023-05-19T17:01:15.344Z,34.61
2023-05-19T17:03:43.629Z,34.53
2023-05-19T17:06:11.618Z,34.99
2023-05-19T17:08:39.478Z,35.00
2023-05-19T17:11:07.584Z,34.63
2023-05-19T17:13:37.229Z,34.62
2023-05-19T17:16:05.305Z,33.86
2023-05-19T17:18:33.929Z,33.96
2023-05-19T17:21:04.047Z,34.81
2023-05-19T17:23:32.294Z,35.10
2023-05-19T17:26:00.336Z,35.56
2023-05-19T17:28:28.432Z,36.15
2023-05-19T17:30:57.801Z,36.75
2023-05-19T17:33:25.900Z,37.35
2023-05-19T17:35:53.920Z,37.74
2023-05-19T17:38:21.884Z,37.66
2023-05-19T17:40:49.755Z,37.95
2023-05-19T17:43:17.673Z,38.01
2023-05-19T17:45:45.544Z,38.35
2023-05-19T17:48:14.986Z,38.44
2023-05-19T17:50:42.886Z,38.67
2023-05-19T17:53:11.390Z,38.48
2023-05-19T17:55:39.948Z,38.43
2023-05-19T17:58:08.408Z,38.05
2023-05-19T18:00:36.925Z,37.86
2023-05-19T18:03:06.284Z,37.70
2023-05-19T18:05:37.491Z,38.09
2023-05-19T18:08:07.157Z,38.17
2023-05-19T18:10:37.030Z,38.55
2023-05-19T18:13:05.071Z,38.83
2023-05-19T18:15:33.006Z,38.75
2023-05-19T18:18:01.139Z,38.64
2023-05-19T18:20:30.964Z,38.54
2023-05-19T18:23:00.954Z,38.19
2023-05-19T18:25:28.972Z,37.88
2023-05-19T18:27:56.883Z,37.43
2023-05-19T18:30:24.833Z,37.68
2023-05-19T18:32:52.774Z,38.14
2023-05-19T18:35:21.314Z,38.54
2023-05-19T18:37:49.303Z,39.07
2023-05-19T18:40:18.805Z,39.46
2023-05-19T18:42:47.849Z,39.74
2023-05-19T18:45:16.097Z,39.96
2023-05-19T18:47:44.035Z,40.34
2023-05-19T18:50:12.120Z,40.36
2023-05-19T18:52:40.119Z,40.64
2023-05-19T18:55:08.929Z,40.79
2023-05-19T18:57:38.205Z,40.95
2023-05-19T19:00:07.243Z,40.94
2023-05-19T19:02:35.173Z,41.20
2023-05-19T19:05:04.093Z,41.20
2023-05-19T19:07:32.104Z,41.12
2023-05-19T19:10:00.008Z,41.30
2023-05-19T19:12:27.909Z,41.44
2023-05-19T19:14:57.296Z,41.71
2023-05-19T19:17:25.326Z,41.81
2023-05-19T19:19:53.525Z,41.94
2023-05-19T19:22:21.567Z,42.16
2023-05-19T19:24:49.628Z,42.34
2023-05-19T19:27:17.758Z,42.28
2023-05-19T19:29:45.928Z,42.40
2023-05-19T19:32:15.245Z,42.65
2023-05-19T19:34:43.325Z,42.99
2023-05-19T19:37:11.355Z,43.22
2023-05-19T19:39:39.519Z,43.36
2023-05-19T19:42:07.499Z,43.33
2023-05-19T19:44:35.496Z,43.71
2023-05-19T19:47:06.086Z,43.50
2023-05-19T19:49:35.612Z,43.49
2023-05-19T19:52:03.672Z,43.74
2023-05-19T19:54:31.551Z,43.61
2023-05-19T19:56:59.551Z,43.76
2023-05-19T19:59:27.621Z,43.68
2023-05-19T20:01:55.753Z,43.92
2023-05-19T20:04:23.928Z,44.13
2023-05-19T20:06:53.554Z,44.46
2023-05-19T20:09:22.013Z,44.34
2023-05-19T20:11:49.949Z,44.77
2023-05-19T20:14:18.892Z,44.64
2023-05-19T20:16:47.170Z,45.16
2023-05-19T20:19:15.357Z,45.18
2023-05-19T20:21:43.584Z,45.10
2023-05-19T20:24:13.079Z,45.54
2023-05-19T20:26:41.333Z,45.84
2023-05-19T20:29:09.252Z,46.25
2023-05-19T20:31:37.343Z,46.33
2023-05-19T20:34:05.602Z,46.59
2023-05-19T20:36:33.555Z,46.89
2023-05-19T20:39:01.447Z,47.01
2023-05-19T20:41:31.394Z,46.92
2023-05-19T20:43:59.286Z,46.72
2023-05-19T20:46:27.278Z,46.82
2023-05-19T20:48:55.422Z,46.78
2023-05-19T20:51:25.192Z,46.76
2023-05-19T20:53:53.090Z,47.06
2023-05-19T20:56:22.490Z,46.93
2023-05-19T20:58:51.932Z,46.91
2023-05-19T21:01:19.925Z,46.86
2023-05-19T21:03:47.954Z,46.67
2023-05-19T21:06:16.081Z,46.89
2023-05-19T21:08:44.002Z,46.77
2023-05-19T21:11:11.900Z,46.91
2023-05-19T21:13:39.877Z,47.00
2023-05-19T21:16:09.359Z,46.83
2023-05-19T21:18:37.285Z,47.10
2023-05-19T21:21:05.479Z,47.07
2023-05-19T21:23:33.775Z,47.14
2023-05-19T21:26:01.653Z,46.65
2023-05-19T21:28:29.553Z,46.93
2023-05-19T21:30:57.494Z,46.92
2023-05-19T21:33:26.919Z,46.59
2023-05-19T21:35:54.940Z,46.58
2023-05-19T21:38:24.318Z,46.73
2023-05-19T21:40:52.854Z,46.69
2023-05-19T21:43:21.803Z,46.76
2023-05-19T21:45:49.779Z,47.02
2023-05-19T21:48:17.782Z,47.27
2023-05-19T21:50:47.132Z,47.26
2023-05-19T21:53:15.147Z,47.08
2023-05-19T21:55:43.051Z,46.93
2023-05-19T21:58:11.141Z,47.16
2023-05-19T22:00:39.119Z,47.12
2023-05-19T22:03:07.366Z,46.76
2023-05-19T22:05:38.074Z,46.84
2023-05-19T22:08:07.600Z,46.85
2023-05-19T22:10:37.361Z,47.13
2023-05-19T22:13:05.517Z,47.07
2023-05-19T22:15:33.454Z,47.21
2023-05-19T22:18:01.629Z,46.75
2023-05-19T22:20:29.837Z,47.01
2023-05-19T22:22:59.491Z,46.72
2023-05-19T22:25:29.269Z,46.87
2023-05-19T22:28:01.418Z,46.72
2023-05-19T22:30:30.472Z,46.86
2023-05-19T22:33:01.166Z,46.96
2023-05-19T22:35:29.411Z,46.77
2023-05-19T22:37:57.296Z,47.29
2023-05-19T22:40:25.272Z,47.10
2023-05-19T22:42:54.533Z,47.39
2023-05-19T22:45:22.767Z,47.19
2023-05-19T22:47:51.242Z,47.18
2023-05-19T22:50:19.284Z,47.23
2023-05-19T22:52:47.233Z,47.61
2023-05-19T22:55:15.176Z,48.00
2023-05-19T22:57:43.061Z,48.11
2023-05-19T23:00:14.134Z,48.72
2023-05-19T23:02:42.483Z,48.66
2023-05-19T23:05:10.665Z,48.99
2023-05-19T23:07:38.571Z,49.29
2023-05-19T23:10:07.582Z,49.20
2023-05-19T23:12:35.787Z,49.53
2023-05-19T23:15:03.833Z,49.13
2023-05-19T23:17:33.232Z,49.05
2023-05-19T23:20:01.264Z,49.04
2023-05-19T23:22:29.156Z,49.22
2023-05-19T23:24:57.056Z,48.89
2023-05-19T23:27:25.205Z,48.83
2023-05-19T23:29:53.598Z,48.76
2023-05-19T23:32:21.447Z,49.13
2023-05-19T23:34:50.724Z,48.79
2023-05-19T23:37:18.628Z,48.73
2023-05-19T23:39:46.516Z,48.79
2023-05-19T23:42:14.388Z,49.04
2023-05-19T23:44:42.364Z,49.01
2023-05-19T23:47:10.271Z,48.72
2023-05-19T23:49:38.199Z,48.71
2023-05-19T23:52:08.009Z,48.91
2023-05-19T23:54:35.911Z,49.04
2023-05-19T23:57:04.194Z,48.82
2023-05-19T23:59:32.098Z,48.72
